sensor_id;sensor_type;location;lat;lon;timestamp;temperature;humidity
11083;DHT22;5595;50.186;8.468;2022-08-19T00:01:58;21.00;99.90
11083;DHT22;5595;50.186;8.468;2022-08-19T00:04:28;21.00;99.90
11083;DHT22;5595;50.186;8.468;2022-08-19T00:06:55;20.90;99.90
11083;DHT22;5595;50.186;8.468;2022-08-19T00:09:24;20.90;99.90
11083;DHT22;5595;50.186;8.468;2022-08-19T00:11:53;20.90;99.90
11083;DHT22;5595;50.186;8.468;2022-08-19T00:14:24;20.80;99.90
11083;DHT22;5595;50.186;8.468;2022-08-19T00:16:51;20.80;99.90
11083;DHT22;5595;50.186;8.468;2022-08-19T00:19:20;20.80;99.90
11083;DHT22;5595;50.186;8.468;2022-08-19T00:21:47;20.80;99.90
11083;DHT22;5595;50.186;8.468;2022-08-19T00:24:14;20.80;99.90
11083;DHT22;5595;50.186;8.468;2022-08-19T00:26:44;20.80;99.90
11083;DHT22;5595;50.186;8.468;2022-08-19T00:29:12;20.70;99.90
11083;DHT22;5595;50.186;8.468;2022-08-19T00:31:40;20.60;99.90
11083;DHT22;5595;50.186;8.468;2022-08-19T00:34:08;20.60;99.90
11083;DHT22;5595;50.186;8.468;2022-08-19T00:36:35;20.60;99.90
11083;DHT22;5595;50.186;8.468;2022-08-19T00:39:05;20.60;99.90
11083;DHT22;5595;50.186;8.468;2022-08-19T00:41:32;20.60;99.90
11083;DHT22;5595;50.186;8.468;2022-08-19T00:44:04;20.60;99.90
11083;DHT22;5595;50.186;8.468;2022-08-19T00:46:38;20.60;99.90
11083;DHT22;5595;50.186;8.468;2022-08-19T00:49:10;20.60;99.90
11083;DHT22;5595;50.186;8.468;2022-08-19T00:51:40;20.60;99.90
11083;DHT22;5595;50.186;8.468;2022-08-19T00:54:07;20.50;99.90
11083;DHT22;5595;50.186;8.468;2022-08-19T00:56:35;20.50;99.90
11083;DHT22;5595;50.186;8.468;2022-08-19T00:59:04;20.60;99.90
11083;DHT22;5595;50.186;8.468;2022-08-19T01:01:35;20.60;99.90
11083;DHT22;5595;50.186;8.468;2022-08-19T01:04:02;20.60;99.90
11083;DHT22;5595;50.186;8.468;2022-08-19T01:06:30;20.50;99.90
11083;DHT22;5595;50.186;8.468;2022-08-19T01:09:01;20.50;99.90
11083;DHT22;5595;50.186;8.468;2022-08-19T01:11:33;20.50;99.90
11083;DHT22;5595;50.186;8.468;2022-08-19T01:14:02;20.50;99.90
11083;DHT22;5595;50.186;8.468;2022-08-19T01:16:30;20.50;99.90
11083;DHT22;5595;50.186;8.468;2022-08-19T01:18:58;20.50;99.90
11083;DHT22;5595;50.186;8.468;2022-08-19T01:21:28;20.40;99.90
11083;DHT22;5595;50.186;8.468;2022-08-19T01:23:59;20.40;99.90
11083;DHT22;5595;50.186;8.468;2022-08-19T01:26:26;20.40;99.90
11083;DHT22;5595;50.186;8.468;2022-08-19T01:28:56;20.40;99.90
11083;DHT22;5595;50.186;8.468;2022-08-19T01:31:24;20.40;99.90
11083;DHT22;5595;50.186;8.468;2022-08-19T01:33:52;20.40;99.90
11083;DHT22;5595;50.186;8.468;2022-08-19T01:36:23;20.40;99.90
11083;DHT22;5595;50.186;8.468;2022-08-19T01:38:51;20.40;99.90
11083;DHT22;5595;50.186;8.468;2022-08-19T01:41:19;20.40;99.90
11083;DHT22;5595;50.186;8.468;2022-08-19T01:43:49;20.50;99.90
11083;DHT22;5595;50.186;8.468;2022-08-19T01:46:16;20.50;99.90
11083;DHT22;5595;50.186;8.468;2022-08-19T01:48:43;20.40;99.90
11083;DHT22;5595;50.186;8.468;2022-08-19T01:51:12;20.40;99.90
11083;DHT22;5595;50.186;8.468;2022-08-19T01:53:39;20.40;99.90
11083;DHT22;5595;50.186;8.468;2022-08-19T01:56:07;20.50;99.90
11083;DHT22;5595;50.186;8.468;2022-08-19T01:58:39;20.60;99.90
11083;DHT22;5595;50.186;8.468;2022-08-19T02:01:08;20.60;99.90
11083;DHT22;5595;50.186;8.468;2022-08-19T02:03:35;20.70;99.90
11083;DHT22;5595;50.186;8.468;2022-08-19T02:06:03;20.70;99.90
11083;DHT22;5595;50.186;8.468;2022-08-19T02:08:31;20.70;99.90
11083;DHT22;5595;50.186;8.468;2022-08-19T02:10:59;20.80;99.90
11083;DHT22;5595;50.186;8.468;2022-08-19T02:13:27;20.70;99.90
11083;DHT22;5595;50.186;8.468;2022-08-19T02:15:55;20.60;99.90
11083;DHT22;5595;50.186;8.468;2022-08-19T02:18:23;20.60;99.90
11083;DHT22;5595;50.186;8.468;2022-08-19T02:20:52;20.40;99.90
11083;DHT22;5595;50.186;8.468;2022-08-19T02:23:19;20.40;99.90
11083;DHT22;5595;50.186;8.468;2022-08-19T02:25:47;20.40;99.90
11083;DHT22;5595;50.186;8.468;2022-08-19T02:28:14;20.30;99.90
11083;DHT22;5595;50.186;8.468;2022-08-19T02:30:42;20.20;99.90
11083;DHT22;5595;50.186;8.468;2022-08-19T02:33:10;20.20;99.90
11083;DHT22;5595;50.186;8.468;2022-08-19T02:35:41;20.20;99.90
11083;DHT22;5595;50.186;8.468;2022-08-19T02:38:08;20.10;99.90
11083;DHT22;5595;50.186;8.468;2022-08-19T02:40:56;20.10;99.90
11083;DHT22;5595;50.186;8.468;2022-08-19T02:43:23;20.00;99.90
11083;DHT22;5595;50.186;8.468;2022-08-19T02:45:50;20.00;99.90
11083;DHT22;5595;50.186;8.468;2022-08-19T02:48:19;19.90;99.90
11083;DHT22;5595;50.186;8.468;2022-08-19T02:50:47;19.90;99.90
11083;DHT22;5595;50.186;8.468;2022-08-19T02:53:18;19.80;99.90
11083;DHT22;5595;50.186;8.468;2022-08-19T02:55:46;19.80;99.90
11083;DHT22;5595;50.186;8.468;2022-08-19T02:58:13;19.80;99.90
11083;DHT22;5595;50.186;8.468;2022-08-19T03:00:46;19.70;99.90
11083;DHT22;5595;50.186;8.468;2022-08-19T03:03:13;19.70;99.90
11083;DHT22;5595;50.186;8.468;2022-08-19T03:05:41;19.70;99.90
11083;DHT22;5595;50.186;8.468;2022-08-19T03:08:09;19.70;99.90
11083;DHT22;5595;50.186;8.468;2022-08-19T03:10:42;19.70;99.90
11083;DHT22;5595;50.186;8.468;2022-08-19T03:13:14;19.70;99.90
11083;DHT22;5595;50.186;8.468;2022-08-19T03:15:42;19.70;99.90
11083;DHT22;5595;50.186;8.468;2022-08-19T03:18:09;19.70;99.90
11083;DHT22;5595;50.186;8.468;2022-08-19T03:20:42;19.70;99.90
11083;DHT22;5595;50.186;8.468;2022-08-19T03:23:09;19.60;99.90
11083;DHT22;5595;50.186;8.468;2022-08-19T03:25:38;19.60;99.90
11083;DHT22;5595;50.186;8.468;2022-08-19T03:28:06;19.60;99.90
11083;DHT22;5595;50.186;8.468;2022-08-19T03:30:33;19.60;99.90
11083;DHT22;5595;50.186;8.468;2022-08-19T03:33:00;19.70;99.90
11083;DHT22;5595;50.186;8.468;2022-08-19T03:35:27;19.70;99.90
11083;DHT22;5595;50.186;8.468;2022-08-19T03:37:55;19.70;99.90
11083;DHT22;5595;50.186;8.468;2022-08-19T03:40:22;19.70;99.90
11083;DHT22;5595;50.186;8.468;2022-08-19T03:42:49;19.70;99.90
11083;DHT22;5595;50.186;8.468;2022-08-19T03:45:16;19.80;99.90
11083;DHT22;5595;50.186;8.468;2022-08-19T03:47:43;19.70;99.90
11083;DHT22;5595;50.186;8.468;2022-08-19T03:50:10;19.70;99.90
11083;DHT22;5595;50.186;8.468;2022-08-19T03:52:37;19.70;99.90
11083;DHT22;5595;50.186;8.468;2022-08-19T03:55:07;19.70;99.90
11083;DHT22;5595;50.186;8.468;2022-08-19T03:57:34;19.70;99.90
11083;DHT22;5595;50.186;8.468;2022-08-19T04:00:03;19.70;99.90
11083;DHT22;5595;50.186;8.468;2022-08-19T04:02:35;19.60;99.90
11083;DHT22;5595;50.186;8.468;2022-08-19T04:05:02;19.60;99.90
11083;DHT22;5595;50.186;8.468;2022-08-19T04:07:29;19.70;99.90
11083;DHT22;5595;50.186;8.468;2022-08-19T04:09:58;19.80;99.90
11083;DHT22;5595;50.186;8.468;2022-08-19T04:12:28;19.80;99.90
11083;DHT22;5595;50.186;8.468;2022-08-19T04:14:58;19.70;99.90
11083;DHT22;5595;50.186;8.468;2022-08-19T04:17:25;19.80;99.90
11083;DHT22;5595;50.186;8.468;2022-08-19T04:19:52;19.60;99.90
11083;DHT22;5595;50.186;8.468;2022-08-19T04:22:19;19.50;99.90
11083;DHT22;5595;50.186;8.468;2022-08-19T04:24:46;19.60;99.90
11083;DHT22;5595;50.186;8.468;2022-08-19T04:27:13;19.50;99.90
11083;DHT22;5595;50.186;8.468;2022-08-19T04:29:43;19.40;99.90
11083;DHT22;5595;50.186;8.468;2022-08-19T04:32:10;19.40;99.90
11083;DHT22;5595;50.186;8.468;2022-08-19T04:34:37;19.50;99.90
11083;DHT22;5595;50.186;8.468;2022-08-19T04:37:05;19.80;99.90
11083;DHT22;5595;50.186;8.468;2022-08-19T04:39:38;19.90;99.90
11083;DHT22;5595;50.186;8.468;2022-08-19T04:42:22;19.90;99.90
11083;DHT22;5595;50.186;8.468;2022-08-19T04:45:13;19.80;99.90
11083;DHT22;5595;50.186;8.468;2022-08-19T04:47:42;19.70;99.90
11083;DHT22;5595;50.186;8.468;2022-08-19T04:50:10;19.80;99.90
11083;DHT22;5595;50.186;8.468;2022-08-19T04:52:37;20.00;99.90
11083;DHT22;5595;50.186;8.468;2022-08-19T04:55:05;20.00;99.90
11083;DHT22;5595;50.186;8.468;2022-08-19T04:57:35;19.90;99.90
11083;DHT22;5595;50.186;8.468;2022-08-19T05:00:09;19.70;99.90
11083;DHT22;5595;50.186;8.468;2022-08-19T05:02:37;19.60;99.90
11083;DHT22;5595;50.186;8.468;2022-08-19T05:05:05;19.50;99.90
11083;DHT22;5595;50.186;8.468;2022-08-19T05:07:32;19.60;99.90
11083;DHT22;5595;50.186;8.468;2022-08-19T05:09:59;19.90;99.90
11083;DHT22;5595;50.186;8.468;2022-08-19T05:12:28;20.00;99.90
11083;DHT22;5595;50.186;8.468;2022-08-19T05:14:55;20.20;99.90
11083;DHT22;5595;50.186;8.468;2022-08-19T05:17:25;20.20;99.90
11083;DHT22;5595;50.186;8.468;2022-08-19T05:19:52;20.20;99.90
11083;DHT22;5595;50.186;8.468;2022-08-19T05:22:37;20.20;99.90
11083;DHT22;5595;50.186;8.468;2022-08-19T05:25:06;20.20;99.90
11083;DHT22;5595;50.186;8.468;2022-08-19T05:27:34;20.30;99.90
11083;DHT22;5595;50.186;8.468;2022-08-19T05:30:01;20.30;99.90
11083;DHT22;5595;50.186;8.468;2022-08-19T05:32:29;20.40;99.90
11083;DHT22;5595;50.186;8.468;2022-08-19T05:34:56;20.40;99.90
11083;DHT22;5595;50.186;8.468;2022-08-19T05:37:23;20.50;99.90
11083;DHT22;5595;50.186;8.468;2022-08-19T05:39:52;20.50;99.90
11083;DHT22;5595;50.186;8.468;2022-08-19T05:42:20;20.60;99.90
11083;DHT22;5595;50.186;8.468;2022-08-19T05:44:48;20.60;99.90
11083;DHT22;5595;50.186;8.468;2022-08-19T05:47:16;20.70;99.90
11083;DHT22;5595;50.186;8.468;2022-08-19T05:49:48;20.80;99.90
11083;DHT22;5595;50.186;8.468;2022-08-19T05:52:16;20.90;99.90
11083;DHT22;5595;50.186;8.468;2022-08-19T05:54:43;21.00;99.90
11083;DHT22;5595;50.186;8.468;2022-08-19T05:57:13;21.20;99.90
11083;DHT22;5595;50.186;8.468;2022-08-19T05:59:40;21.40;99.90
11083;DHT22;5595;50.186;8.468;2022-08-19T06:02:07;21.50;99.90
11083;DHT22;5595;50.186;8.468;2022-08-19T06:04:34;21.60;99.90
11083;DHT22;5595;50.186;8.468;2022-08-19T06:07:03;21.70;99.90
11083;DHT22;5595;50.186;8.468;2022-08-19T06:09:30;21.80;99.90
11083;DHT22;5595;50.186;8.468;2022-08-19T06:11:58;21.80;99.90
11083;DHT22;5595;50.186;8.468;2022-08-19T06:14:27;21.90;99.90
11083;DHT22;5595;50.186;8.468;2022-08-19T06:16:55;22.00;99.90
11083;DHT22;5595;50.186;8.468;2022-08-19T06:19:23;22.20;99.90
11083;DHT22;5595;50.186;8.468;2022-08-19T06:21:52;22.30;99.90
11083;DHT22;5595;50.186;8.468;2022-08-19T06:24:24;22.20;99.90
11083;DHT22;5595;50.186;8.468;2022-08-19T06:26:53;22.10;99.90
11083;DHT22;5595;50.186;8.468;2022-08-19T06:29:24;22.10;99.90
11083;DHT22;5595;50.186;8.468;2022-08-19T06:31:54;22.10;99.90
11083;DHT22;5595;50.186;8.468;2022-08-19T06:34:22;22.10;99.90
11083;DHT22;5595;50.186;8.468;2022-08-19T06:36:53;22.30;99.90
11083;DHT22;5595;50.186;8.468;2022-08-19T06:39:24;22.30;99.90
11083;DHT22;5595;50.186;8.468;2022-08-19T06:41:54;22.20;99.90
11083;DHT22;5595;50.186;8.468;2022-08-19T06:44:23;22.10;99.90
11083;DHT22;5595;50.186;8.468;2022-08-19T06:46:51;22.10;99.90
11083;DHT22;5595;50.186;8.468;2022-08-19T06:49:18;22.10;99.90
11083;DHT22;5595;50.186;8.468;2022-08-19T06:51:47;22.20;99.90
11083;DHT22;5595;50.186;8.468;2022-08-19T06:54:15;22.20;99.90
11083;DHT22;5595;50.186;8.468;2022-08-19T06:56:43;22.20;99.90
11083;DHT22;5595;50.186;8.468;2022-08-19T06:59:12;22.30;99.90
11083;DHT22;5595;50.186;8.468;2022-08-19T07:01:40;22.40;99.90
11083;DHT22;5595;50.186;8.468;2022-08-19T07:04:09;22.40;99.90
11083;DHT22;5595;50.186;8.468;2022-08-19T07:06:37;22.40;99.90
11083;DHT22;5595;50.186;8.468;2022-08-19T07:09:04;22.60;99.90
11083;DHT22;5595;50.186;8.468;2022-08-19T07:11:32;22.70;99.90
11083;DHT22;5595;50.186;8.468;2022-08-19T07:14:01;22.80;99.90
11083;DHT22;5595;50.186;8.468;2022-08-19T07:16:28;22.90;99.90
11083;DHT22;5595;50.186;8.468;2022-08-19T07:18:56;22.90;99.90
11083;DHT22;5595;50.186;8.468;2022-08-19T07:21:25;22.90;99.90
11083;DHT22;5595;50.186;8.468;2022-08-19T07:23:55;23.00;99.90
11083;DHT22;5595;50.186;8.468;2022-08-19T07:26:25;23.20;99.90
11083;DHT22;5595;50.186;8.468;2022-08-19T07:28:53;23.50;99.90
11083;DHT22;5595;50.186;8.468;2022-08-19T07:31:24;23.50;99.90
11083;DHT22;5595;50.186;8.468;2022-08-19T07:33:52;23.40;99.90
11083;DHT22;5595;50.186;8.468;2022-08-19T07:36:23;23.40;99.90
11083;DHT22;5595;50.186;8.468;2022-08-19T07:38:51;23.30;99.90
11083;DHT22;5595;50.186;8.468;2022-08-19T07:41:22;23.30;99.90
11083;DHT22;5595;50.186;8.468;2022-08-19T07:43:50;23.50;99.90
11083;DHT22;5595;50.186;8.468;2022-08-19T07:46:18;23.60;99.90
11083;DHT22;5595;50.186;8.468;2022-08-19T07:48:49;23.50;99.90
11083;DHT22;5595;50.186;8.468;2022-08-19T07:51:19;23.50;99.90
11083;DHT22;5595;50.186;8.468;2022-08-19T07:53:47;23.50;99.90
11083;DHT22;5595;50.186;8.468;2022-08-19T07:56:17;23.50;99.90
11083;DHT22;5595;50.186;8.468;2022-08-19T07:58:49;23.50;99.90
11083;DHT22;5595;50.186;8.468;2022-08-19T08:01:18;23.70;99.90
11083;DHT22;5595;50.186;8.468;2022-08-19T08:03:50;23.90;99.90
11083;DHT22;5595;50.186;8.468;2022-08-19T08:06:35;23.80;99.90
11083;DHT22;5595;50.186;8.468;2022-08-19T08:09:23;23.90;99.90
11083;DHT22;5595;50.186;8.468;2022-08-19T08:11:53;23.90;99.90
11083;DHT22;5595;50.186;8.468;2022-08-19T08:14:22;23.80;99.90
11083;DHT22;5595;50.186;8.468;2022-08-19T08:16:50;23.60;99.90
11083;DHT22;5595;50.186;8.468;2022-08-19T08:19:20;23.40;99.90
11083;DHT22;5595;50.186;8.468;2022-08-19T08:21:48;23.20;99.90
11083;DHT22;5595;50.186;8.468;2022-08-19T08:24:16;23.10;99.90
11083;DHT22;5595;50.186;8.468;2022-08-19T08:26:46;23.00;99.90
11083;DHT22;5595;50.186;8.468;2022-08-19T08:29:14;23.00;99.90
11083;DHT22;5595;50.186;8.468;2022-08-19T08:31:43;22.90;99.90
11083;DHT22;5595;50.186;8.468;2022-08-19T08:34:11;22.90;99.90
11083;DHT22;5595;50.186;8.468;2022-08-19T08:36:43;23.00;99.90
11083;DHT22;5595;50.186;8.468;2022-08-19T08:39:13;23.00;99.90
11083;DHT22;5595;50.186;8.468;2022-08-19T08:41:49;23.00;99.90
11083;DHT22;5595;50.186;8.468;2022-08-19T08:44:22;22.90;99.90
11083;DHT22;5595;50.186;8.468;2022-08-19T08:46:55;23.00;99.90
11083;DHT22;5595;50.186;8.468;2022-08-19T08:49:29;23.30;99.90
11083;DHT22;5595;50.186;8.468;2022-08-19T08:52:02;23.40;99.90
11083;DHT22;5595;50.186;8.468;2022-08-19T08:54:34;23.50;99.90
11083;DHT22;5595;50.186;8.468;2022-08-19T08:57:04;23.60;99.90
11083;DHT22;5595;50.186;8.468;2022-08-19T08:59:38;23.40;99.90
11083;DHT22;5595;50.186;8.468;2022-08-19T09:02:07;23.50;99.90
11083;DHT22;5595;50.186;8.468;2022-08-19T09:04:35;23.50;99.90
11083;DHT22;5595;50.186;8.468;2022-08-19T09:07:16;23.60;99.90
11083;DHT22;5595;50.186;8.468;2022-08-19T09:09:49;23.80;99.90
11083;DHT22;5595;50.186;8.468;2022-08-19T09:12:24;24.00;99.90
11083;DHT22;5595;50.186;8.468;2022-08-19T09:14:56;24.20;99.90
11083;DHT22;5595;50.186;8.468;2022-08-19T09:17:26;24.50;99.90
11083;DHT22;5595;50.186;8.468;2022-08-19T09:19:58;24.60;99.90
11083;DHT22;5595;50.186;8.468;2022-08-19T09:22:27;24.80;99.90
11083;DHT22;5595;50.186;8.468;2022-08-19T09:24:55;24.50;99.90
11083;DHT22;5595;50.186;8.468;2022-08-19T09:27:23;24.40;99.90
11083;DHT22;5595;50.186;8.468;2022-08-19T09:29:50;24.50;99.90
11083;DHT22;5595;50.186;8.468;2022-08-19T09:32:18;24.70;99.90
11083;DHT22;5595;50.186;8.468;2022-08-19T09:34:45;24.80;99.90
11083;DHT22;5595;50.186;8.468;2022-08-19T09:37:12;24.60;99.90
11083;DHT22;5595;50.186;8.468;2022-08-19T09:39:41;24.60;99.90
11083;DHT22;5595;50.186;8.468;2022-08-19T09:42:08;24.70;99.90
11083;DHT22;5595;50.186;8.468;2022-08-19T09:44:41;24.70;99.90
11083;DHT22;5595;50.186;8.468;2022-08-19T09:47:09;24.80;99.90
11083;DHT22;5595;50.186;8.468;2022-08-19T09:49:37;24.90;99.90
11083;DHT22;5595;50.186;8.468;2022-08-19T09:52:05;24.90;99.90
11083;DHT22;5595;50.186;8.468;2022-08-19T09:54:33;24.70;99.90
11083;DHT22;5595;50.186;8.468;2022-08-19T09:57:02;24.60;99.90
11083;DHT22;5595;50.186;8.468;2022-08-19T09:59:29;24.60;99.90
11083;DHT22;5595;50.186;8.468;2022-08-19T10:01:57;24.70;99.90
11083;DHT22;5595;50.186;8.468;2022-08-19T10:04:24;24.90;99.90
11083;DHT22;5595;50.186;8.468;2022-08-19T10:07:21;24.90;99.90
11083;DHT22;5595;50.186;8.468;2022-08-19T10:09:48;25.00;99.90
11083;DHT22;5595;50.186;8.468;2022-08-19T10:12:16;25.10;99.90
11083;DHT22;5595;50.186;8.468;2022-08-19T10:14:43;25.10;99.90
11083;DHT22;5595;50.186;8.468;2022-08-19T10:17:11;25.10;99.90
11083;DHT22;5595;50.186;8.468;2022-08-19T10:19:38;25.10;99.90
11083;DHT22;5595;50.186;8.468;2022-08-19T10:22:06;25.20;99.90
11083;DHT22;5595;50.186;8.468;2022-08-19T10:24:33;25.20;99.90
11083;DHT22;5595;50.186;8.468;2022-08-19T10:27:01;25.40;99.90
11083;DHT22;5595;50.186;8.468;2022-08-19T10:29:31;25.40;99.90
11083;DHT22;5595;50.186;8.468;2022-08-19T10:32:00;25.40;99.90
11083;DHT22;5595;50.186;8.468;2022-08-19T10:34:27;25.50;99.90
11083;DHT22;5595;50.186;8.468;2022-08-19T10:36:55;25.70;99.90
11083;DHT22;5595;50.186;8.468;2022-08-19T10:39:23;25.60;99.90
11083;DHT22;5595;50.186;8.468;2022-08-19T10:41:50;25.80;99.90
11083;DHT22;5595;50.186;8.468;2022-08-19T10:44:20;26.00;99.80
11083;DHT22;5595;50.186;8.468;2022-08-19T10:46:50;26.30;99.50
11083;DHT22;5595;50.186;8.468;2022-08-19T10:49:17;26.40;98.60
11083;DHT22;5595;50.186;8.468;2022-08-19T10:51:45;26.30;98.10
11083;DHT22;5595;50.186;8.468;2022-08-19T10:54:29;26.10;98.00
11083;DHT22;5595;50.186;8.468;2022-08-19T10:57:10;26.20;98.20
11083;DHT22;5595;50.186;8.468;2022-08-19T10:59:37;26.40;97.40
11083;DHT22;5595;50.186;8.468;2022-08-19T11:02:09;26.30;96.90
11083;DHT22;5595;50.186;8.468;2022-08-19T11:04:37;26.00;96.90
11083;DHT22;5595;50.186;8.468;2022-08-19T11:07:05;26.10;97.10
11083;DHT22;5595;50.186;8.468;2022-08-19T11:09:38;26.20;96.70
11083;DHT22;5595;50.186;8.468;2022-08-19T11:12:06;26.40;95.70
11083;DHT22;5595;50.186;8.468;2022-08-19T11:14:34;26.30;95.40
11083;DHT22;5595;50.186;8.468;2022-08-19T11:17:01;26.40;95.40
11083;DHT22;5595;50.186;8.468;2022-08-19T11:19:30;26.60;95.30
11083;DHT22;5595;50.186;8.468;2022-08-19T11:21:58;26.90;94.60
11083;DHT22;5595;50.186;8.468;2022-08-19T11:24:28;26.90;93.90
11083;DHT22;5595;50.186;8.468;2022-08-19T11:27:01;26.90;94.30
11083;DHT22;5595;50.186;8.468;2022-08-19T11:29:30;27.00;94.50
11083;DHT22;5595;50.186;8.468;2022-08-19T11:31:57;27.10;93.50
11083;DHT22;5595;50.186;8.468;2022-08-19T11:34:26;27.10;92.70
11083;DHT22;5595;50.186;8.468;2022-08-19T11:36:55;26.90;92.50
11083;DHT22;5595;50.186;8.468;2022-08-19T11:39:25;26.70;92.20
11083;DHT22;5595;50.186;8.468;2022-08-19T11:41:53;26.70;92.60
11083;DHT22;5595;50.186;8.468;2022-08-19T11:44:20;26.80;92.60
11083;DHT22;5595;50.186;8.468;2022-08-19T11:46:47;26.90;91.60
11083;DHT22;5595;50.186;8.468;2022-08-19T11:49:17;27.00;91.30
11083;DHT22;5595;50.186;8.468;2022-08-19T11:51:46;27.00;91.00
11083;DHT22;5595;50.186;8.468;2022-08-19T11:54:16;26.90;90.20
11083;DHT22;5595;50.186;8.468;2022-08-19T11:56:44;26.90;90.10
11083;DHT22;5595;50.186;8.468;2022-08-19T11:59:11;27.00;90.20
11083;DHT22;5595;50.186;8.468;2022-08-19T12:01:38;27.10;89.30
11083;DHT22;5595;50.186;8.468;2022-08-19T12:04:08;27.20;88.70
11083;DHT22;5595;50.186;8.468;2022-08-19T12:06:38;27.30;88.80
11083;DHT22;5595;50.186;8.468;2022-08-19T12:09:06;27.40;88.90
11083;DHT22;5595;50.186;8.468;2022-08-19T12:11:36;27.60;88.20
11083;DHT22;5595;50.186;8.468;2022-08-19T12:14:03;27.40;87.10
11083;DHT22;5595;50.186;8.468;2022-08-19T12:16:31;27.40;86.80
11083;DHT22;5595;50.186;8.468;2022-08-19T12:18:58;27.30;86.80
11083;DHT22;5595;50.186;8.468;2022-08-19T12:21:30;27.30;87.90
11083;DHT22;5595;50.186;8.468;2022-08-19T12:23:58;27.50;87.80
11083;DHT22;5595;50.186;8.468;2022-08-19T12:26:27;27.80;86.90
11083;DHT22;5595;50.186;8.468;2022-08-19T12:28:55;27.90;86.90
11083;DHT22;5595;50.186;8.468;2022-08-19T12:31:24;28.00;86.50
11083;DHT22;5595;50.186;8.468;2022-08-19T12:33:51;28.10;85.90
11083;DHT22;5595;50.186;8.468;2022-08-19T12:36:18;28.10;85.10
11083;DHT22;5595;50.186;8.468;2022-08-19T12:38:47;28.00;85.00
11083;DHT22;5595;50.186;8.468;2022-08-19T12:41:16;28.00;85.00
11083;DHT22;5595;50.186;8.468;2022-08-19T12:43:44;28.00;84.00
11083;DHT22;5595;50.186;8.468;2022-08-19T12:46:12;28.10;82.40
11083;DHT22;5595;50.186;8.468;2022-08-19T12:48:39;28.10;81.50
11083;DHT22;5595;50.186;8.468;2022-08-19T12:51:09;28.00;81.60
11083;DHT22;5595;50.186;8.468;2022-08-19T12:53:36;28.20;81.80
11083;DHT22;5595;50.186;8.468;2022-08-19T12:56:04;28.20;80.10
11083;DHT22;5595;50.186;8.468;2022-08-19T12:58:32;28.00;79.20
11083;DHT22;5595;50.186;8.468;2022-08-19T13:01:00;27.80;79.30
11083;DHT22;5595;50.186;8.468;2022-08-19T13:03:33;27.80;80.10
11083;DHT22;5595;50.186;8.468;2022-08-19T13:06:00;27.80;79.80
11083;DHT22;5595;50.186;8.468;2022-08-19T13:08:27;27.90;79.90
11083;DHT22;5595;50.186;8.468;2022-08-19T13:10:54;28.00;80.90
11083;DHT22;5595;50.186;8.468;2022-08-19T13:13:21;28.10;80.30
11083;DHT22;5595;50.186;8.468;2022-08-19T13:15:48;28.10;77.20
11083;DHT22;5595;50.186;8.468;2022-08-19T13:18:15;27.90;78.00
11083;DHT22;5595;50.186;8.468;2022-08-19T13:20:44;27.90;76.10
11083;DHT22;5595;50.186;8.468;2022-08-19T13:23:11;27.80;76.70
11083;DHT22;5595;50.186;8.468;2022-08-19T13:25:38;27.90;76.80
11083;DHT22;5595;50.186;8.468;2022-08-19T13:28:05;28.10;76.60
11083;DHT22;5595;50.186;8.468;2022-08-19T13:30:32;28.10;76.90
11083;DHT22;5595;50.186;8.468;2022-08-19T13:33:19;28.20;77.50
11083;DHT22;5595;50.186;8.468;2022-08-19T13:35:49;28.20;76.80
11083;DHT22;5595;50.186;8.468;2022-08-19T13:38:19;28.10;76.60
11083;DHT22;5595;50.186;8.468;2022-08-19T13:40:47;27.90;76.10
11083;DHT22;5595;50.186;8.468;2022-08-19T13:43:16;27.80;76.00
11083;DHT22;5595;50.186;8.468;2022-08-19T13:45:43;27.90;76.50
11083;DHT22;5595;50.186;8.468;2022-08-19T13:48:10;27.80;75.40
11083;DHT22;5595;50.186;8.468;2022-08-19T13:50:40;27.70;74.60
11083;DHT22;5595;50.186;8.468;2022-08-19T13:53:10;27.70;75.40
11083;DHT22;5595;50.186;8.468;2022-08-19T13:55:38;27.60;75.40
11083;DHT22;5595;50.186;8.468;2022-08-19T13:58:05;27.60;73.90
11083;DHT22;5595;50.186;8.468;2022-08-19T14:00:34;27.60;74.50
11083;DHT22;5595;50.186;8.468;2022-08-19T14:03:02;27.60;74.60
11083;DHT22;5595;50.186;8.468;2022-08-19T14:05:30;27.70;74.30
11083;DHT22;5595;50.186;8.468;2022-08-19T14:07:58;27.80;73.90
11083;DHT22;5595;50.186;8.468;2022-08-19T14:10:29;27.70;72.70
11083;DHT22;5595;50.186;8.468;2022-08-19T14:13:01;27.50;72.80
11083;DHT22;5595;50.186;8.468;2022-08-19T14:15:29;27.50;73.20
11083;DHT22;5595;50.186;8.468;2022-08-19T14:17:56;27.60;72.10
11083;DHT22;5595;50.186;8.468;2022-08-19T14:20:23;27.50;72.20
11083;DHT22;5595;50.186;8.468;2022-08-19T14:22:50;27.60;72.20
11083;DHT22;5595;50.186;8.468;2022-08-19T14:25:21;27.60;72.00
11083;DHT22;5595;50.186;8.468;2022-08-19T14:27:51;27.50;72.60
11083;DHT22;5595;50.186;8.468;2022-08-19T14:30:21;27.50;73.20
11083;DHT22;5595;50.186;8.468;2022-08-19T14:32:48;27.40;72.10
11083;DHT22;5595;50.186;8.468;2022-08-19T14:35:15;27.30;72.70
11083;DHT22;5595;50.186;8.468;2022-08-19T14:37:44;27.30;71.90
11083;DHT22;5595;50.186;8.468;2022-08-19T14:40:13;27.30;72.50
11083;DHT22;5595;50.186;8.468;2022-08-19T14:42:40;27.40;72.10
11083;DHT22;5595;50.186;8.468;2022-08-19T14:45:10;27.50;70.90
11083;DHT22;5595;50.186;8.468;2022-08-19T14:47:38;27.50;70.00
11083;DHT22;5595;50.186;8.468;2022-08-19T14:50:07;27.60;69.70
11083;DHT22;5595;50.186;8.468;2022-08-19T14:52:34;27.70;70.10
11083;DHT22;5595;50.186;8.468;2022-08-19T14:55:02;27.70;69.90
11083;DHT22;5595;50.186;8.468;2022-08-19T14:57:29;27.80;71.00
11083;DHT22;5595;50.186;8.468;2022-08-19T14:59:56;27.80;71.20
11083;DHT22;5595;50.186;8.468;2022-08-19T15:02:25;27.70;70.90
11083;DHT22;5595;50.186;8.468;2022-08-19T15:04:51;27.80;70.80
11083;DHT22;5595;50.186;8.468;2022-08-19T15:07:19;27.70;69.70
11083;DHT22;5595;50.186;8.468;2022-08-19T15:09:48;27.60;68.70
11083;DHT22;5595;50.186;8.468;2022-08-19T15:12:16;27.60;68.20
11083;DHT22;5595;50.186;8.468;2022-08-19T15:14:43;27.50;68.90
11083;DHT22;5595;50.186;8.468;2022-08-19T15:17:16;27.60;68.60
11083;DHT22;5595;50.186;8.468;2022-08-19T15:19:45;27.60;68.60
11083;DHT22;5595;50.186;8.468;2022-08-19T15:22:12;27.70;68.70
11083;DHT22;5595;50.186;8.468;2022-08-19T15:24:40;27.80;69.60
11083;DHT22;5595;50.186;8.468;2022-08-19T15:27:10;27.80;69.00
11083;DHT22;5595;50.186;8.468;2022-08-19T15:29:38;27.70;69.20
11083;DHT22;5595;50.186;8.468;2022-08-19T15:32:05;27.70;69.60
11083;DHT22;5595;50.186;8.468;2022-08-19T15:34:35;27.60;68.20
11083;DHT22;5595;50.186;8.468;2022-08-19T15:37:03;27.50;67.60
11083;DHT22;5595;50.186;8.468;2022-08-19T15:39:30;27.50;67.40
11083;DHT22;5595;50.186;8.468;2022-08-19T15:41:57;27.50;68.10
11083;DHT22;5595;50.186;8.468;2022-08-19T15:44:25;27.60;68.50
11083;DHT22;5595;50.186;8.468;2022-08-19T15:47:00;27.60;68.70
11083;DHT22;5595;50.186;8.468;2022-08-19T15:49:29;27.60;69.10
11083;DHT22;5595;50.186;8.468;2022-08-19T15:51:56;27.50;68.80
11083;DHT22;5595;50.186;8.468;2022-08-19T15:54:26;27.50;69.10
11083;DHT22;5595;50.186;8.468;2022-08-19T15:56:53;27.50;68.50